Weather at Ndjili International Airport

Public forecast

Using degrees Celsius for public forecast. Weather courtesy of forecast.io.

Current aviation weather report (METAR) for Ndjili International Airport

Report is more than 2 hours old.

Retrieved 2021/01/20 08:00 UTC (5 hours ago):

FZAA 200800Z 18004KT 6000 SCT018 27/22 Q1014 NOSIG

Aviation forecast (TAF) for Ndjili International Airport

Retrieved 2021/01/20 12:33 UTC (37 minutes ago):

TAF FZAA 201100Z 2012/2118 30010KT 7000 SCT024 BECMG 2017/2019 FEW018 FEW028CB PROB30 TEMPO 2021/2101 4000 TSRA BECMG 2104/2106 23004KT BKN016 BECMG 2110/2112 32012KT SCT023 FEW030CB